Millington, TN

9:15 PM CDT on April 29, 2017 (GMT -0500)
whispering hills | | Change Station

Elev 308 ft 35.30 °N, 89.94 °W | Updated 44 minutes ago

Mostly Cloudy
Mostly Cloudy
71.4 °F
Feels Like 71 °F
N
18.6
Wind Variable Wind from West
Gusts 23.3 mph

Today
High -- | Low -- °F
--% Chance of Precip.
Yesterday
High -- | Low -- °F
Precip. -- in
Pressure 29.87 in
Visibility 7.0 miles
Clouds Few 2800 ft
Scattered Clouds 4100 ft
Mostly Cloudy 4900 ft
Heat Index 71 °F
Dew Point 66 °F
Humidity 82%
Rainfall 0.00 in
Snow Depth Not available.
6:10 AM 7:44 PM
Waxing Crescent, 18% visible
METAR KNQA 300155Z AUTO 22013G32KT 7SM FEW028 SCT041 BKN049 21/17 A2987 RMK A01 P0001
Pressure 29.87 in
Visibility 7.0 miles
Clouds Few 2800 ft
Scattered Clouds 4100 ft
Mostly Cloudy 4900 ft
Heat Index 71 °F
Dew Point 66 °F
Humidity 82%
Rainfall 0.00 in
Snow Depth Not available.
6:10 AM 7:44 PM
Waxing Crescent, 18% visible
METAR KNQA 300155Z AUTO 22013G32KT 7SM FEW028 SCT041 BKN049 21/17 A2987 RMK A01 P0001

Get Severe Weather Alerts

Thanks for signing up!

Be on the lookout for a verification email in your inbox.

You'll start receiving the daily forecast at 8 AM.

×

10-Day Weather Forecast

Almanac

Astronomy

Apr. 29, 2017 Rise Set
Actual Time
Civil Twilight
Nautical Twilight
Astronomical Twilight
Moon
Length of Visible Light
Length of Day
Tomorrow will be .
, % of the Moon is Illuminated

Today's Extremes

State Highs State Lows

Community

WunderPhotos

WunderBlog® & News

Nearby

Air Quality

  Air Quality AQ Index Pollutant
Not available.

Snow Depth

Station Depth Elevation

Earthquake Activity

City Distance Mag. Time & Date
Minimum magnitude displayed is 2.5.

Coastal Water Temperatures

Place Temperature

Stations

Nearby Weather Stations

Station Location Temp. Windchill Dew Point Humidity Wind Precip. Elev Updated Type
                   

Watches & Warnings

There are currently no watches in effect.